• Join FlightAware (Why Join?)
  • Login
  • US Flag 
05:18AM EDT


 

Airport Tracker/Info


-or-


 

Live Flight TrackerFlight Track Log ✈ N675MC ✈ 15-Sep-2013 ✈ KATL - KORD

Flight Track Log - Related Links

Times and Time Zones

All times are in EDT time to prevent confusion due to time zone crossing. See the N675MC flight status page for this flight to view local times or setup timezone preferences in your user account.

Time Position Orientation Groundspeed Altitude Reporting Facility
EDT Latitude Longitude Course Direction KTS MPH feet Rate Location/Type
05:41PM 33.6500 -84.3667 349° North 200 230 2,200  Level Atlanta TRACON
05:42PM 33.6833 -84.3000 59° Northeast 270 311 4,200 1,980 Climbing Atlanta TRACON
05:43PM 33.7667 -84.2667 18° North 279 321 6,200 2,160 Climbing Atlanta TRACON
05:44PM 34.0719 -84.5904 349° North  Level Estimated
05:44PM 33.8333 -84.2833 348° North 283 326 8,600  Level Atlanta TRACON
05:45PM 34.1853 -84.6040 354° North  Level FlightAware Approximate
05:46PM 34.2940 -84.6453 342° North  Level Estimated
05:46PM 33.9942 -84.3919 331° Northwest 306 352 11,900  Level Atlanta Center
05:47PM 34.4026 -84.6867 349° North  Level Estimated
05:47PM 34.0775 -84.4628 325° Northwest 345 397 13,000  Level Atlanta Center
05:48PM 34.1647 -84.5358 325° Northwest 376 433 14,800 1,740 Climbing Atlanta Center
05:49PM 34.2542 -84.6092 326° Northwest 384 442 16,500 1,500 Climbing Atlanta Center
05:50PM 34.3519 -84.6906 326° Northwest 390 449 17,900 1,320 Climbing Atlanta Center
05:51PM 34.4433 -84.7667 326° Northwest 401 461 19,200 1,440 Climbing Atlanta Center
05:52PM 34.5494 -84.8281 335° Northwest 401 461 20,800 1,320 Climbing Atlanta Center
05:53PM 34.6575 -84.8772 339° North 406 467 21,900 1,200 Climbing Atlanta Center
05:54PM 34.7575 -84.9061 347° North 411 473 23,300 1,140 Climbing Atlanta Center
05:55PM 34.8761 -84.9400 347° North 416 479 24,200 900 Climbing Atlanta Center
05:56PM 34.9928 -84.9769 345° North 429 494 25,200 960 Climbing Atlanta Center
05:57PM 35.1114 -85.0111 347° North 434 499 26,200 1,140 Climbing Atlanta Center
05:58PM 35.2322 -85.0431 348° North 434 499 27,500 900 Climbing Atlanta Center
05:59PM 35.3508 -85.0753 348° North 434 499 28,000 240 Climbing Atlanta Center
06:00PM 35.4800 -85.0972 352° North 440 506 28,000  Level Atlanta Center
06:01PM 35.6050 -85.1217 351° North 451 519 28,000  Level Atlanta Center
06:03PM 35.8461 -85.1633 352° North 469 540 28,000  Level Indianapolis Center
06:04PM 35.9794 -85.1825 353° North 473 544 28,000  Level Indianapolis Center
06:05PM 36.1119 -85.2036 353° North 474 545 28,000  Level Indianapolis Center
06:06PM 36.2433 -85.2308 351° North 478 550 28,000 180 Level Indianapolis Center
06:07PM 36.3719 -85.2678 347° North 473 544 28,400 720 Climbing Indianapolis Center
06:08PM 36.5231 -85.3164 346° North 467 537 29,500 1,020 Climbing Indianapolis Center
06:09PM 36.6464 -85.3572 345° North 461 531 30,600 720 Climbing Indianapolis Center
06:11PM 36.7708 -85.3808 351° North 452 520 31,000 180 Climbing Indianapolis Center
06:12PM 36.9011 -85.3856 358° North 466 536 31,000 240 Level Indianapolis Center
06:13PM 37.0456 -85.3925 358° North 463 533 31,500 480 Climbing Indianapolis Center
06:14PM 37.1725 -85.4053 355° North 458 527 32,100 240 Climbing Indianapolis Center
06:15PM 37.3000 -85.4267 352° North 461 531 32,000 -60 Descending Indianapolis Center
06:16PM 37.4297 -85.4483 352° North 466 536 32,000  Level Indianapolis Center
06:17PM 37.5569 -85.4733 351° North 464 534 32,000  Level Indianapolis Center
06:18PM 37.7025 -85.4981 352° North 454 522 32,000  Level Indianapolis Center
06:19PM 37.8286 -85.5192 352° North 452 520 32,000  Level Indianapolis Center
06:20PM 37.9536 -85.5500 349° North 456 525 32,000  Level Indianapolis Center
06:21PM 38.0706 -85.5906 345° North 441 507 32,000  Level Indianapolis Center
06:22PM 38.1931 -85.6192 350° North 444 511 32,000  Level Indianapolis Center
06:23PM 38.3183 -85.6239 358° North 449 517 32,000  Level Indianapolis Center
06:24PM 38.4458 -85.6067 North 457 526 32,000  Level Indianapolis Center
06:25PM 38.6003 -85.5917 North 463 533 32,000  Level Indianapolis Center
06:26PM 38.7103 -85.6050 355° North 457 526 32,000  Level Indianapolis Center
06:27PM 38.8581 -85.6386 350° North 454 522 32,000 -120 Level Indianapolis Center
06:28PM 38.9828 -85.6622 352° North 455 524 31,800 -480 Descending Indianapolis Center
06:29PM 39.1092 -85.6867 351° North 458 527 31,100 -780 Descending Indianapolis Center
06:30PM 39.2353 -85.7100 352° North 459 528 30,200 -540 Descending Indianapolis Center
06:31PM 39.3628 -85.7286 354° North 462 532 30,000 -120 Descending Indianapolis Center
06:32PM 39.5186 -85.7289 360° North 471 542 30,000  Level Indianapolis Center
06:33PM 39.6475 -85.7303 360° North 469 540 30,000 -660 Level Indianapolis Center
06:35PM 39.9072 -85.7389 359° North 474 545 28,000 -1,020 Descending Chicago Center
06:36PM 40.0367 -85.7408 359° North 471 542 26,900 -1,200 Descending Indianapolis Center
06:37PM 40.1939 -85.7111 North 479 551 25,500 -1,200 Descending Indianapolis Center
06:38PM 40.3233 -85.6853 North 476 548 24,400 -780 Descending Indianapolis Center
06:39PM 40.4478 -85.6692 North 456 525 24,000 -240 Descending Indianapolis Center
06:41PM 40.5642 -85.7047 347° North 440 506 24,000 -300 Level Chicago Center
06:42PM 40.6853 -85.7531 343° North 436 502 23,500 -840 Descending Chicago Center
06:43PM 40.7953 -85.8097 339° North 427 491 22,300 -1,320 Descending Chicago Center
06:44PM 40.9319 -85.8642 343° North 426 490 20,800 -2,160 Descending Chicago Center
06:45PM 40.9956 -85.9778 307° West 390 449 17,900 -2,340 Descending Chicago Center
06:46PM 41.0411 -86.0944 297° West 362 417 16,000 -960 Descending Chicago Center
06:47PM 41.0878 -86.2061 299° West 349 402 16,000  Level Chicago Center
06:48PM 41.1450 -86.3139 305° West 355 409 16,000  Level Chicago Center
06:49PM 41.2061 -86.4219 307° West 363 418 16,000 -480 Level Chicago Center
06:50PM 41.2594 -86.5269 304° West 345 397 15,100 -1,920 Descending Chicago Center
06:51PM 41.3222 -86.6492 304° West 336 387 12,100 -1,500 Descending Chicago Center
06:52PM 41.4156 -86.6878 343° North 362 417 12,000 -60 Descending Chicago Center
06:53PM 41.5142 -86.7089 351° North 358 412 12,000  Level Chicago Center
06:54PM 41.6197 -86.7392 348° North 351 404 12,000  Level Chicago Center
06:55PM 41.7019 -86.7758 342° North 321 369 12,000  Level Chicago Center
06:56PM 41.7853 -86.8089 344° North 316 364 12,000 -780 Level Chicago Center
06:57PM 41.8672 -86.8444 342° North 313 360 10,500 -1,200 Descending Chicago Center
06:58PM 41.9114 -86.9536 299° West 275 316 9,600 -780 Descending Chicago Center
06:59PM 41.9428 -87.0367 297° West 256 295 8,900 -300 Descending Chicago Center
07:00PM 41.9742 -87.1222 296° West 257 296 9,000 -600 Climbing Chicago Center
07:01PM 41.9836 -87.2131 278° West 248 285 7,700 -1,020 Descending Chicago Center
07:02PM 41.9822 -87.3003 269° West 238 274 6,900 -360 Descending Chicago Center
07:03PM 41.9825 -87.3925 270° West 211 243 7,000 -60 Climbing Chicago Center
07:04PM 41.9833 -87.4697 271° West 209 241 6,800 -600 Descending Chicago Center
07:05PM 41.9833 -87.5389 270° West 190 219 5,800 -1,020 Descending Chicago Center
07:06PM 41.9831 -87.6122 270° West 194 223 4,700 -1,140 Descending Chicago Center
07:07PM 41.9833 -87.6833 270° West 189 217 3,700 -1,140 Descending Chicago TRACON
07:08PM 41.9833 -87.7500 270° West 193 222 2,600 -1,020 Descending Chicago TRACON
07:09PM 41.9833 -87.8167 270° West 149 171 1,600 -900 Descending Chicago TRACON
07:10PM 41.9833 -87.8667 270° West 141 162 900 -720 Descending Chicago TRACON